Time;durP1;ratioP1;P1;durP2;ratioP2;P2;SDS_P1;SDS_P2;PMS_P1;PMS_P2;Temp;Humidity;BMP_temperature;BMP_pressure;BME280_temperature;BME280_humidity;BME280_pressure;Samples;Min_cycle;Max_cycle;Signal;HPM_P1;HPM_P2
2022/03/18 00:00:07;;;;;;;14.77;6.80;;;10.00;95.20;;;;;;5011057;28;20045;-65
2022/03/18 00:02:33;;;;;;;8.27;5.65;;;10.10;95.20;;;;;;5005326;28;20057;-65
2022/03/18 00:04:59;;;;;;;13.05;5.90;;;10.00;95.30;;;;;;5010807;28;20069;-65
2022/03/18 00:07:26;;;;;;;11.13;6.20;;;10.00;95.20;;;;;;4999024;28;20039;-65
2022/03/18 00:09:51;;;;;;;13.65;6.18;;;9.90;95.40;;;;;;5013936;28;20481;-66
2022/03/18 00:12:17;;;;;;;9.18;5.60;;;10.00;95.30;;;;;;5006552;28;20038;-66
2022/03/18 00:14:43;;;;;;;9.57;5.25;;;9.90;95.30;;;;;;5014849;28;20041;-66
2022/03/18 00:17:10;;;;;;;10.40;5.53;;;9.90;95.30;;;;;;5011105;28;20044;-66
2022/03/18 00:19:38;;;;;;;12.10;5.80;;;9.90;95.50;;;;;;5014328;28;20026;-66
2022/03/18 00:22:05;;;;;;;10.98;5.60;;;9.90;95.40;;;;;;5012036;28;20030;-66
2022/03/18 00:24:32;;;;;;;10.48;5.70;;;9.80;95.50;;;;;;5014443;28;20089;-66
2022/03/18 00:26:58;;;;;;;12.55;6.38;;;9.80;95.70;;;;;;5013220;28;20034;-66
2022/03/18 00:29:25;;;;;;;15.15;6.93;;;9.80;95.60;;;;;;5011479;28;20033;-66
2022/03/18 00:31:51;;;;;;;10.30;5.90;;;9.80;95.70;;;;;;5006642;28;20041;-66
2022/03/18 00:34:16;;;;;;;11.10;5.05;;;9.70;95.60;;;;;;5013666;28;20034;-66
2022/03/18 00:36:42;;;;;;;8.25;4.60;;;9.70;95.60;;;;;;5001535;28;20045;-66
2022/03/18 00:39:08;;;;;;;14.77;5.38;;;9.70;95.60;;;;;;5014111;28;20121;-66
2022/03/18 00:41:33;;;;;;;5.97;4.18;;;9.70;95.50;;;;;;5010671;28;20056;-66
2022/03/18 00:43:59;;;;;;;12.55;5.60;;;9.70;95.60;;;;;;5013440;28;20037;-66
2022/03/18 00:46:24;;;;;;;10.02;5.05;;;9.60;95.70;;;;;;5005526;28;20077;-66
2022/03/18 00:54:20;;;;;;;11.20;5.15;;;9.70;95.50;;;;;;4994606;28;20031;-66
2022/03/18 00:56:45;;;;;;;9.80;5.38;;;9.70;95.60;;;;;;5004279;28;20125;-66
2022/03/18 00:59:11;;;;;;;11.55;5.78;;;9.80;95.50;;;;;;4997835;28;20625;-66
2022/03/18 01:01:37;;;;;;;8.30;5.03;;;9.80;95.50;;;;;;5011971;28;20168;-66
2022/03/18 01:04:02;;;;;;;12.85;5.40;;;9.70;95.60;;;;;;5005643;28;20117;-66
2022/03/18 01:06:28;;;;;;;8.98;4.82;;;9.70;95.50;;;;;;5002195;28;20488;-66
2022/03/18 01:08:54;;;;;;;12.80;5.10;;;9.70;95.60;;;;;;5003792;28;20026;-66
2022/03/18 01:11:20;;;;;;;10.55;4.72;;;9.70;95.60;;;;;;4997839;28;20041;-66
2022/03/18 01:13:46;;;;;;;13.27;4.85;;;9.80;95.60;;;;;;4993761;28;20072;-66
2022/03/18 01:16:11;;;;;;;11.98;5.47;;;9.70;95.60;;;;;;5000481;28;20108;-66
2022/03/18 01:18:37;;;;;;;12.57;4.70;;;9.70;95.60;;;;;;5011270;28;20413;-66
2022/03/18 01:21:03;;;;;;;10.15;4.70;;;9.70;95.50;;;;;;5011118;28;20030;-66
2022/03/18 01:23:28;;;;;;;11.18;5.22;;;9.70;95.60;;;;;;5010159;28;20030;-66
2022/03/18 01:25:55;;;;;;;13.50;5.03;;;9.70;95.70;;;;;;4998293;28;20125;-66
2022/03/18 01:28:20;;;;;;;13.23;6.35;;;9.70;95.80;;;;;;5011486;28;20504;-66
2022/03/18 01:30:46;;;;;;;11.75;5.18;;;9.70;95.70;;;;;;5001684;28;20039;-66
2022/03/18 01:33:11;;;;;;;11.38;4.68;;;9.70;95.70;;;;;;5013081;28;20080;-65
2022/03/18 01:35:37;;;;;;;8.70;4.65;;;9.70;95.70;;;;;;4994436;28;20025;-66
2022/03/18 01:38:03;;;;;;;10.25;5.80;;;9.70;95.70;;;;;;4999446;28;20469;-65
2022/03/18 01:40:29;;;;;;;11.13;5.18;;;9.70;95.60;;;;;;4997994;28;20485;-66
2022/03/18 01:42:55;;;;;;;9.43;4.25;;;9.70;95.70;;;;;;5007363;28;20027;-65
2022/03/18 01:45:21;;;;;;;13.73;4.65;;;9.70;95.70;;;;;;4994209;28;20457;-65
2022/03/18 01:47:47;;;;;;;11.98;4.80;;;9.70;95.80;;;;;;5004053;28;20042;-65
2022/03/18 01:50:14;;;;;;;9.93;4.85;;;9.70;95.80;;;;;;5001267;28;20141;-65
2022/03/18 01:52:42;;;;;;;13.10;4.82;;;9.60;95.80;;;;;;5004190;28;20117;-66
2022/03/18 01:55:07;;;;;;;10.63;4.25;;;9.60;95.80;;;;;;4993042;28;20422;-68
2022/03/18 01:57:33;;;;;;;10.85;5.75;;;9.60;95.80;;;;;;5002896;28;20053;-66
2022/03/18 01:59:59;;;;;;;10.80;4.85;;;9.60;95.80;;;;;;4993423;28;20490;-66
2022/03/18 02:02:25;;;;;;;8.93;4.53;;;9.60;95.80;;;;;;4999720;28;20045;-66
2022/03/18 02:04:51;;;;;;;10.52;4.40;;;9.60;95.90;;;;;;4993005;28;20046;-66
2022/03/18 02:07:17;;;;;;;10.05;4.90;;;9.60;95.90;;;;;;5005886;28;20037;-66
2022/03/18 02:09:44;;;;;;;12.70;5.32;;;9.50;95.80;;;;;;5012575;28;20065;-66
2022/03/18 02:12:10;;;;;;;7.18;4.40;;;9.50;95.80;;;;;;5009610;28;20042;-66
2022/03/18 02:14:38;;;;;;;12.63;5.10;;;9.50;95.80;;;;;;5011476;28;20026;-66
2022/03/18 02:17:06;;;;;;;11.10;5.10;;;9.50;95.90;;;;;;5001339;28;20034;-66
2022/03/18 02:19:32;;;;;;;12.95;4.63;;;9.40;95.80;;;;;;5000741;28;20116;-66
2022/03/18 02:21:58;;;;;;;13.23;5.10;;;9.50;95.80;;;;;;5007098;28;20022;-65
2022/03/18 02:24:24;;;;;;;8.20;5.63;;;9.50;95.70;;;;;;5011231;28;20374;-65
2022/03/18 02:26:52;;;;;;;13.20;5.40;;;9.50;95.80;;;;;;5004403;28;20389;-66
2022/03/18 02:29:19;;;;;;;12.88;5.18;;;9.50;95.80;;;;;;4992838;28;20030;-66
2022/03/18 02:31:45;;;;;;;9.35;3.95;;;9.50;95.70;;;;;;4997740;28;20061;-66
2022/03/18 02:34:11;;;;;;;9.15;5.00;;;9.60;95.70;;;;;;5004386;28;20128;-66
2022/03/18 02:36:37;;;;;;;10.63;4.47;;;9.50;95.60;;;;;;4999037;28;20030;-66
2022/03/18 02:39:03;;;;;;;11.77;4.88;;;9.50;95.50;;;;;;4999657;28;20030;-66
2022/03/18 02:41:28;;;;;;;9.40;4.38;;;9.50;95.50;;;;;;5001580;28;20103;-65
2022/03/18 02:43:54;;;;;;;11.65;4.55;;;9.50;95.50;;;;;;4999871;28;20086;-65
2022/03/18 02:46:21;;;;;;;14.50;4.47;;;9.50;95.40;;;;;;5003950;28;20030;-66
2022/03/18 02:48:47;;;;;;;14.90;4.57;;;9.50;95.40;;;;;;5011147;28;20465;-67
2022/03/18 02:51:13;;;;;;;9.35;3.70;;;9.60;95.40;;;;;;5001852;28;20042;-65
2022/03/18 02:53:38;;;;;;;13.07;4.30;;;9.50;95.30;;;;;;4996598;28;20026;-65
2022/03/18 02:56:04;;;;;;;10.07;4.47;;;9.50;95.20;;;;;;5008406;28;20022;-65
2022/03/18 02:58:30;;;;;;;11.02;4.45;;;9.50;95.10;;;;;;5010849;28;20519;-65
2022/03/18 03:00:56;;;;;;;11.50;4.38;;;9.40;95.10;;;;;;5009765;28;20030;-66
2022/03/18 03:03:21;;;;;;;12.77;4.13;;;9.40;95.10;;;;;;5011404;28;20478;-65
2022/03/18 03:08:34;;;;;;;10.73;3.25;;;9.40;95.10;;;;;;5010825;28;20539;-66
2022/03/18 03:10:59;;;;;;;7.95;3.72;;;9.30;95.00;;;;;;5009641;28;20558;-65
2022/03/18 03:13:25;;;;;;;8.32;3.92;;;9.40;95.00;;;;;;5011134;28;20069;-66
2022/03/18 03:15:51;;;;;;;9.80;3.75;;;9.40;94.90;;;;;;4996482;28;20121;-65
2022/03/18 03:18:16;;;;;;;12.30;4.18;;;9.40;94.90;;;;;;5010320;28;20018;-66
2022/03/18 03:20:42;;;;;;;7.05;3.72;;;9.40;94.90;;;;;;4997007;28;20050;-65
2022/03/18 03:23:07;;;;;;;9.93;4.82;;;9.40;94.80;;;;;;5011504;28;20037;-65
2022/03/18 03:25:33;;;;;;;10.50;3.80;;;9.40;94.70;;;;;;4998114;28;20026;-65
2022/03/18 03:27:59;;;;;;;11.05;3.72;;;9.40;94.80;;;;;;5011484;28;20029;-65
2022/03/18 03:30:25;;;;;;;8.55;3.75;;;9.40;94.70;;;;;;5008483;28;20042;-65
2022/03/18 03:32:51;;;;;;;9.18;3.50;;;9.30;94.60;;;;;;4994871;28;20497;-65
2022/03/18 03:35:17;;;;;;;9.77;3.15;;;9.40;94.60;;;;;;5007182;28;20032;-65
2022/03/18 03:37:43;;;;;;;10.27;3.75;;;9.30;94.50;;;;;;4992051;28;20042;-65
2022/03/18 03:40:13;;;;;;;9.02;3.40;;;9.40;94.50;;;;;;5001933;28;20466;-66
2022/03/18 03:42:39;;;;;;;12.10;3.40;;;9.30;94.40;;;;;;5006594;28;20034;-66
2022/03/18 03:45:06;;;;;;;10.75;3.35;;;9.30;94.40;;;;;;5003831;28;20065;-66
2022/03/18 03:47:31;;;;;;;10.00;3.88;;;9.30;94.30;;;;;;5022907;28;20507;-66
2022/03/18 03:49:56;;;;;;;10.65;4.47;;;9.20;94.30;;;;;;5014729;28;20018;-65
2022/03/18 03:52:22;;;;;;;12.48;3.67;;;9.20;94.30;;;;;;5011598;28;20124;-66
2022/03/18 03:54:47;;;;;;;10.02;3.28;;;9.20;94.30;;;;;;5013555;28;20033;-66
2022/03/18 03:57:13;;;;;;;8.18;3.20;;;9.20;94.30;;;;;;5008867;28;20050;-66
2022/03/18 03:59:38;;;;;;;12.20;4.85;;;9.20;94.30;;;;;;4995585;28;20029;-66
2022/03/18 04:02:04;;;;;;;12.13;3.65;;;9.20;94.20;;;;;;5009734;28;20029;-67
2022/03/18 04:04:31;;;;;;;11.20;3.40;;;9.20;94.30;;;;;;5013695;28;20493;-65
2022/03/18 04:06:57;;;;;;;11.95;3.47;;;9.10;94.30;;;;;;5010148;28;20481;-66
2022/03/18 04:09:22;;;;;;;9.80;2.75;;;9.20;94.30;;;;;;4998313;28;20105;-66
2022/03/18 04:11:48;;;;;;;7.28;2.92;;;9.20;94.30;;;;;;5006300;28;20046;-66
2022/03/18 04:14:13;;;;;;;8.15;2.95;;;9.30;94.30;;;;;;5013865;28;20026;-65
2022/03/18 04:16:39;;;;;;;8.93;3.70;;;9.30;94.20;;;;;;5009145;28;20041;-65
2022/03/18 04:19:04;;;;;;;12.30;3.80;;;9.30;94.20;;;;;;5008211;28;20125;-66
2022/03/18 04:21:30;;;;;;;8.60;3.35;;;9.20;94.10;;;;;;5013574;28;20064;-65
2022/03/18 04:23:56;;;;;;;7.22;3.22;;;9.30;94.10;;;;;;5003094;28;20033;-65
2022/03/18 04:26:21;;;;;;;12.68;3.10;;;9.20;94.00;;;;;;5002998;28;20367;-65
2022/03/18 04:28:47;;;;;;;9.63;4.43;;;9.20;94.00;;;;;;5013335;28;20389;-66
2022/03/18 04:31:13;;;;;;;9.18;3.92;;;9.20;94.00;;;;;;5002299;28;20026;-65
2022/03/18 04:33:38;;;;;;;8.25;2.95;;;9.20;94.00;;;;;;5003142;28;20033;-65
2022/03/18 04:36:04;;;;;;;10.55;3.00;;;9.20;94.00;;;;;;5001320;28;20022;-66
2022/03/18 04:38:30;;;;;;;12.60;3.20;;;9.20;94.00;;;;;;5013373;28;20030;-65
2022/03/18 04:40:55;;;;;;;13.38;3.67;;;9.30;94.00;;;;;;5011544;28;20105;-66
2022/03/18 04:43:21;;;;;;;9.70;3.55;;;9.20;94.00;;;;;;5002335;28;20026;-66
2022/03/18 04:45:46;;;;;;;13.57;3.83;;;9.30;93.90;;;;;;4998635;28;20034;-66
2022/03/18 04:48:12;;;;;;;12.27;3.10;;;9.30;93.90;;;;;;5003694;28;20014;-66
2022/03/18 04:50:37;;;;;;;8.98;3.50;;;9.30;93.90;;;;;;5010624;28;20112;-67
2022/03/18 04:53:03;;;;;;;8.85;3.20;;;9.30;93.80;;;;;;5011410;28;20041;-66
2022/03/18 04:55:28;;;;;;;8.98;3.08;;;9.20;93.80;;;;;;5008015;28;20073;-67
2022/03/18 04:57:53;;;;;;;10.50;3.20;;;9.30;93.80;;;;;;5014090;28;20092;-65
2022/03/18 05:00:24;;;;;;;15.25;3.75;;;9.30;93.70;;;;;;5002687;28;20052;-65
2022/03/18 05:02:49;;;;;;;9.93;3.05;;;9.30;93.60;;;;;;5013090;28;20096;-66
2022/03/18 05:05:19;;;;;;;10.50;3.03;;;9.30;93.60;;;;;;5009876;28;20049;-66
2022/03/18 05:07:51;;;;;;;14.13;3.13;;;9.30;93.60;;;;;;5003818;28;20501;-65
2022/03/18 05:10:17;;;;;;;8.55;3.30;;;9.20;93.50;;;;;;5009460;28;20070;-65
2022/03/18 05:12:43;;;;;;;10.25;2.88;;;9.20;93.50;;;;;;5013458;28;20120;-65
2022/03/18 05:15:10;;;;;;;11.90;3.58;;;9.20;93.40;;;;;;5008146;28;20050;-65
2022/03/18 05:17:36;;;;;;;10.23;2.95;;;9.20;93.40;;;;;;5012772;28;20049;-65
2022/03/18 05:20:03;;;;;;;9.55;2.58;;;9.20;93.40;;;;;;5007300;28;20081;-65
2022/03/18 05:22:30;;;;;;;18.75;5.28;;;9.10;93.40;;;;;;4995586;28;20037;-65
2022/03/18 05:24:57;;;;;;;13.63;3.97;;;9.10;93.40;;;;;;5001074;28;20024;-65
2022/03/18 05:27:23;;;;;;;11.02;3.00;;;9.10;93.40;;;;;;5012215;28;20072;-65
2022/03/18 05:29:49;;;;;;;12.45;3.28;;;9.00;93.50;;;;;;5009777;28;20486;-65
2022/03/18 05:32:15;;;;;;;8.73;3.00;;;8.90;93.70;;;;;;5008387;28;20049;-65
2022/03/18 05:34:41;;;;;;;9.02;3.10;;;8.80;93.70;;;;;;5012849;28;20029;-66
2022/03/18 05:37:06;;;;;;;10.23;3.03;;;8.90;93.70;;;;;;4998384;28;20133;-66
2022/03/18 05:39:33;;;;;;;12.52;2.75;;;8.80;93.70;;;;;;5008191;28;20491;-67
2022/03/18 05:41:58;;;;;;;15.05;3.50;;;8.80;93.70;;;;;;5007507;28;20091;-66
2022/03/18 05:44:24;;;;;;;11.15;3.42;;;8.80;93.70;;;;;;5012389;28;20112;-64
2022/03/18 05:46:51;;;;;;;21.13;3.45;;;8.80;93.60;;;;;;5004658;28;20034;-65
2022/03/18 05:49:18;;;;;;;10.35;3.47;;;8.80;93.50;;;;;;5011888;28;20041;-65
2022/03/18 05:51:44;;;;;;;11.15;3.30;;;8.80;93.50;;;;;;5002450;28;20042;-65
2022/03/18 05:54:10;;;;;;;15.75;4.35;;;8.80;93.50;;;;;;5012341;28;20026;-65
2022/03/18 05:56:54;;;;;;;10.15;2.58;;;8.90;93.50;;;;;;5007824;28;20044;-65
2022/03/18 05:59:25;;;;;;;8.88;3.08;;;8.90;93.60;;;;;;4993305;28;20121;-64
2022/03/18 06:01:52;;;;;;;9.30;3.67;;;8.90;93.30;;;;;;5002141;28;20121;-66
2022/03/18 06:04:18;;;;;;;12.73;4.20;;;8.80;93.30;;;;;;5011938;28;20524;-65
2022/03/18 06:06:44;;;;;;;11.98;3.78;;;8.80;93.30;;;;;;5006352;28;20034;-64
2022/03/18 06:11:56;;;;;;;13.25;4.75;;;8.80;93.20;;;;;;5005310;28;20517;-65
2022/03/18 06:14:24;;;;;;;12.80;3.85;;;8.90;93.10;;;;;;5012258;28;20037;-65
2022/03/18 06:16:55;;;;;;;11.38;3.05;;;8.90;93.00;;;;;;5006913;28;20037;-65
2022/03/18 06:19:22;;;;;;;10.00;2.38;;;8.80;92.90;;;;;;5004736;28;20021;-65
2022/03/18 06:21:48;;;;;;;22.23;5.38;;;8.80;92.80;;;;;;5003295;28;20029;-65
2022/03/18 06:24:15;;;;;;;13.32;4.05;;;8.70;92.80;;;;;;4996908;28;20029;-64
2022/03/18 06:26:40;;;;;;;9.75;3.55;;;8.70;92.70;;;;;;4998145;28;20049;-65
2022/03/18 06:29:06;;;;;;;16.45;4.47;;;8.60;92.70;;;;;;5001949;28;20026;-64
2022/03/18 06:31:33;;;;;;;15.38;3.83;;;8.60;92.80;;;;;;5004978;28;20046;-64
2022/03/18 06:34:00;;;;;;;8.65;2.80;;;8.50;92.80;;;;;;5008288;28;20026;-65
2022/03/18 06:36:25;;;;;;;13.00;3.03;;;8.40;92.80;;;;;;5008487;28;20030;-64
2022/03/18 06:38:51;;;;;;;15.13;3.50;;;8.40;92.80;;;;;;5008220;28;20440;-65
2022/03/18 06:41:19;;;;;;;16.52;2.85;;;8.40;92.80;;;;;;5008427;28;20033;-65
2022/03/18 06:43:45;;;;;;;12.77;3.40;;;8.40;92.90;;;;;;5008760;28;20030;-66
2022/03/18 06:46:11;;;;;;;10.32;2.67;;;8.40;92.90;;;;;;5001414;28;20441;-65
2022/03/18 06:48:36;;;;;;;13.50;2.80;;;8.40;92.90;;;;;;5006206;28;20101;-65
2022/03/18 06:51:02;;;;;;;14.07;3.30;;;8.30;92.80;;;;;;5008007;28;20179;-65
2022/03/18 06:53:28;;;;;;;15.25;3.20;;;8.40;92.80;;;;;;5009421;28;20660;-65
2022/03/18 06:55:53;;;;;;;12.45;3.78;;;8.30;92.80;;;;;;4999259;28;20113;-65
2022/03/18 06:58:19;;;;;;;17.63;4.28;;;8.30;92.60;;;;;;5003242;28;20040;-65
2022/03/18 07:00:45;;;;;;;14.25;3.40;;;8.30;92.70;;;;;;4999054;28;20018;-65
2022/03/18 07:03:10;;;;;;;17.23;3.35;;;8.30;92.70;;;;;;4998338;28;20370;-65
2022/03/18 07:05:36;;;;;;;12.02;3.25;;;8.30;92.70;;;;;;5000180;28;20104;-65
2022/03/18 07:08:01;;;;;;;14.75;4.60;;;8.30;92.70;;;;;;5007988;28;20033;-64
2022/03/18 07:10:26;;;;;;;11.23;3.38;;;8.20;92.70;;;;;;5007490;28;20037;-65
2022/03/18 07:12:52;;;;;;;8.70;2.97;;;8.20;92.70;;;;;;5010350;28;20116;-65
2022/03/18 07:15:18;;;;;;;13.25;3.70;;;8.20;92.80;;;;;;5007616;28;20025;-65
2022/03/18 07:17:55;;;;;;;8.50;3.70;;;8.20;92.80;;;;;;5009862;28;20037;-65
2022/03/18 07:20:24;;;;;;;10.75;3.00;;;8.30;92.80;;;;;;5006030;28;20049;-65
2022/03/18 07:23:09;;;;;;;17.75;3.50;;;8.20;92.70;;;;;;5007387;28;20030;-65
2022/03/18 07:25:41;;;;;;;16.70;3.65;;;8.30;92.70;;;;;;5007833;28;20042;-64
2022/03/18 07:28:08;;;;;;;10.57;3.17;;;8.40;92.80;;;;;;5010180;28;20042;-65
2022/03/18 07:30:35;;;;;;;10.88;3.33;;;8.40;92.70;;;;;;5001224;28;20030;-64
2022/03/18 07:33:01;;;;;;;14.18;2.97;;;8.40;92.60;;;;;;4992730;28;20033;-64
2022/03/18 07:35:27;;;;;;;12.82;3.53;;;8.40;92.50;;;;;;4992812;28;20038;-64
2022/03/18 07:37:53;;;;;;;16.65;3.83;;;8.40;92.60;;;;;;4992143;28;20026;-66
2022/03/18 07:40:19;;;;;;;10.63;3.45;;;8.40;92.50;;;;;;5000284;28;20496;-66
2022/03/18 07:42:51;;;;;;;9.98;3.05;;;8.40;92.40;;;;;;5006737;28;20117;-66
2022/03/18 07:45:22;;;;;;;12.75;3.83;;;8.40;92.20;;;;;;5007773;28;20025;-66
2022/03/18 07:47:52;;;;;;;15.40;3.40;;;8.40;92.30;;;;;;4998630;28;20117;-66
2022/03/18 07:50:20;;;;;;;10.77;2.72;;;8.40;92.30;;;;;;5004610;28;20477;-66
2022/03/18 07:52:47;;;;;;;15.25;4.20;;;8.40;92.30;;;;;;4995267;28;20043;-66
2022/03/18 07:55:12;;;;;;;11.00;3.63;;;8.50;92.60;;;;;;5004440;28;20033;-65
2022/03/18 07:57:38;;;;;;;12.57;3.55;;;8.50;92.50;;;;;;5004826;28;20034;-65
2022/03/18 08:00:04;;;;;;;12.32;2.85;;;8.60;92.50;;;;;;5009947;28;20026;-66
2022/03/18 08:02:29;;;;;;;11.88;3.92;;;8.60;92.40;;;;;;5007798;28;20041;-66
2022/03/18 08:04:55;;;;;;;10.95;3.30;;;8.70;92.30;;;;;;5008925;28;20061;-66
2022/03/18 08:07:20;;;;;;;10.57;3.25;;;8.70;92.20;;;;;;5008340;28;20121;-66
2022/03/18 08:09:46;;;;;;;14.45;3.30;;;8.60;92.10;;;;;;5009658;28;20025;-66
2022/03/18 08:12:12;;;;;;;13.18;3.83;;;8.60;91.90;;;;;;5006268;28;20038;-65
2022/03/18 08:14:38;;;;;;;16.30;3.17;;;8.60;92.00;;;;;;5008550;28;20058;-65
2022/03/18 08:17:04;;;;;;;8.65;2.80;;;8.70;92.00;;;;;;5007530;28;20034;-66
2022/03/18 08:19:29;;;;;;;11.82;3.10;;;8.70;91.90;;;;;;5001792;28;20116;-65
2022/03/18 08:21:55;;;;;;;9.20;3.20;;;8.70;91.80;;;;;;5003432;28;20045;-66
2022/03/18 08:24:20;;;;;;;13.60;3.30;;;8.70;91.90;;;;;;5009722;28;20026;-67
2022/03/18 08:26:46;;;;;;;11.65;2.80;;;8.70;92.00;;;;;;5001748;28;20029;-67
2022/03/18 08:29:11;;;;;;;16.05;3.70;;;8.70;91.90;;;;;;5010366;28;20062;-67
2022/03/18 08:31:37;;;;;;;12.93;4.28;;;8.70;91.80;;;;;;5011701;28;20049;-66
2022/03/18 08:34:02;;;;;;;9.10;3.00;;;8.70;91.80;;;;;;5013014;28;20054;-67
2022/03/18 08:36:28;;;;;;;8.60;2.67;;;8.70;91.80;;;;;;5011873;28;20064;-67
2022/03/18 08:38:53;;;;;;;11.10;3.15;;;8.80;91.80;;;;;;5000384;28;20031;-66
2022/03/18 08:41:19;;;;;;;13.85;2.90;;;8.80;91.80;;;;;;4995254;28;20038;-67
2022/03/18 08:43:45;;;;;;;14.98;4.20;;;8.90;91.80;;;;;;4998891;28;20026;-66
2022/03/18 08:46:10;;;;;;;9.75;2.78;;;8.90;91.70;;;;;;5009193;28;20431;-67
2022/03/18 08:48:36;;;;;;;8.88;3.10;;;8.90;91.80;;;;;;4999695;28;20114;-67
2022/03/18 08:51:01;;;;;;;14.85;4.65;;;8.90;91.80;;;;;;5008542;28;20042;-67
2022/03/18 08:53:27;;;;;;;9.30;2.50;;;8.90;91.60;;;;;;5012406;28;20591;-66
2022/03/18 08:55:54;;;;;;;12.80;3.40;;;9.00;91.60;;;;;;5006004;28;20033;-67
2022/03/18 08:58:22;;;;;;;14.15;3.20;;;9.00;91.60;;;;;;5001358;28;20341;-66
2022/03/18 09:00:47;;;;;;;11.82;3.38;;;9.00;91.60;;;;;;5007185;28;20037;-66
2022/03/18 09:03:13;;;;;;;10.93;3.28;;;9.00;91.50;;;;;;5000717;28;20047;-66
2022/03/18 09:05:38;;;;;;;11.10;3.33;;;9.10;91.60;;;;;;5008126;28;20088;-66
2022/03/18 09:08:04;;;;;;;10.43;3.22;;;9.20;91.50;;;;;;4994095;28;20053;-67
2022/03/18 09:10:30;;;;;;;12.73;2.90;;;9.20;91.50;;;;;;5005238;28;20022;-66
2022/03/18 09:12:58;;;;;;;11.75;4.25;;;9.30;91.50;;;;;;4994185;28;20478;-67
2022/03/18 09:15:24;;;;;;;14.35;3.78;;;9.30;91.40;;;;;;5008186;28;20030;-66
2022/03/18 09:17:49;;;;;;;14.30;3.50;;;9.30;91.30;;;;;;5013860;28;20524;-68
2022/03/18 09:20:15;;;;;;;12.23;3.90;;;9.40;91.30;;;;;;5011244;28;20030;-67
2022/03/18 09:22:41;;;;;;;14.43;4.20;;;9.40;91.20;;;;;;4995001;28;20527;-67
2022/03/18 09:25:06;;;;;;;15.38;4.68;;;9.50;91.40;;;;;;5012186;28;20505;-67
2022/03/18 09:27:32;;;;;;;9.80;4.13;;;9.50;91.10;;;;;;5008724;28;20030;-68
2022/03/18 09:30:00;;;;;;;15.85;4.00;;;9.50;91.00;;;;;;5010998;28;20312;-67
2022/03/18 09:32:26;;;;;;;15.75;3.75;;;9.50;91.00;;;;;;5010124;28;20481;-67
2022/03/18 09:34:52;;;;;;;11.80;4.65;;;9.60;91.00;;;;;;4993739;28;20054;-67
2022/03/18 09:37:17;;;;;;;17.02;4.65;;;9.60;91.00;;;;;;5008842;28;20143;-66
2022/03/18 09:39:43;;;;;;;11.93;4.10;;;9.50;91.00;;;;;;4993923;28;20544;-66
2022/03/18 09:42:09;;;;;;;11.25;3.75;;;9.60;91.10;;;;;;5007833;28;20033;-66
2022/03/18 09:44:38;;;;;;;18.30;5.05;;;9.70;91.00;;;;;;5015531;28;20033;-66
2022/03/18 09:47:06;;;;;;;17.60;5.32;;;9.70;90.90;;;;;;5007082;28;20022;-67
2022/03/18 09:49:32;;;;;;;13.70;4.75;;;9.80;90.90;;;;;;5009890;28;20376;-66
2022/03/18 09:51:58;;;;;;;19.13;4.93;;;9.80;90.90;;;;;;5005356;28;20128;-66
2022/03/18 09:54:24;;;;;;;11.32;5.95;;;9.90;90.90;;;;;;5006132;28;20022;-66
2022/03/18 09:56:49;;;;;;;14.82;5.43;;;9.90;90.80;;;;;;5011404;28;20054;-67
2022/03/18 09:59:15;;;;;;;19.30;5.97;;;10.00;90.80;;;;;;4997514;28;20148;-67
2022/03/18 10:01:41;;;;;;;19.65;5.80;;;10.00;90.80;;;;;;5001315;28;20017;-67
2022/03/18 10:04:11;;;;;;;12.15;5.20;;;10.10;90.70;;;;;;4996404;28;20061;-67
2022/03/18 10:06:38;;;;;;;12.77;4.70;;;10.20;90.70;;;;;;5003792;28;20056;-66
2022/03/18 10:09:05;;;;;;;17.70;4.90;;;10.30;90.60;;;;;;5012284;28;20025;-66
2022/03/18 10:11:35;;;;;;;14.35;5.43;;;10.40;90.60;;;;;;5011455;28;20034;-66
2022/03/18 10:14:24;;;;;;;14.02;5.47;;;10.40;90.50;;;;;;5012321;28;20030;-67
2022/03/18 10:16:51;;;;;;;17.80;5.97;;;10.50;90.50;;;;;;5011325;28;20104;-66
2022/03/18 10:19:19;;;;;;;11.30;5.25;;;10.60;90.30;;;;;;5010818;28;20158;-67
2022/03/18 10:21:59;;;;;;;13.75;5.85;;;10.70;90.30;;;;;;5011115;28;20029;-67
2022/03/18 10:24:33;;;;;;;16.45;6.28;;;10.70;90.00;;;;;;5010678;28;20022;-67
2022/03/18 10:27:22;;;;;;;15.13;6.85;;;10.80;90.00;;;;;;5010683;28;20033;-66
2022/03/18 10:29:49;;;;;;;16.02;6.30;;;10.90;89.50;;;;;;5005600;28;20068;-66
2022/03/18 10:32:17;;;;;;;18.67;6.50;;;11.00;89.70;;;;;;5006708;28;20037;-66
2022/03/18 10:37:55;;;;;;;14.43;5.78;;;11.00;89.20;;;;;;5010763;28;20030;-66
2022/03/18 10:40:36;;;;;;;13.93;5.43;;;11.10;88.20;;;;;;4997573;28;20390;-66
2022/03/18 10:43:06;;;;;;;12.55;5.60;;;11.00;88.00;;;;;;5012431;28;20026;-66
2022/03/18 10:45:32;;;;;;;15.30;5.07;;;11.00;88.00;;;;;;5001038;28;20030;-66
2022/03/18 10:48:14;;;;;;;16.10;5.03;;;11.10;88.00;;;;;;5012215;28;20065;-65
2022/03/18 10:50:40;;;;;;;16.42;5.50;;;11.20;86.60;;;;;;5010189;28;20386;-66
2022/03/18 10:53:09;;;;;;;12.65;4.72;;;11.20;86.70;;;;;;5011713;28;20026;-65
2022/03/18 10:55:43;;;;;;;16.40;6.38;;;11.30;87.00;;;;;;5009654;28;20023;-66
2022/03/18 10:58:19;;;;;;;15.98;5.53;;;11.30;86.90;;;;;;4995304;28;20038;-66
2022/03/18 11:00:46;;;;;;;13.50;5.20;;;11.40;86.50;;;;;;4994812;28;20057;-66
2022/03/18 11:03:13;;;;;;;20.23;6.25;;;11.50;86.20;;;;;;5009792;28;20038;-65
2022/03/18 11:05:41;;;;;;;10.43;4.88;;;11.50;85.60;;;;;;5010587;28;20030;-66
2022/03/18 11:08:11;;;;;;;21.85;6.28;;;11.50;86.00;;;;;;5011671;28;20079;-66
2022/03/18 11:13:29;;;;;;;15.70;5.97;;;11.60;85.90;;;;;;5011473;28;20080;-66
2022/03/18 11:15:55;;;;;;;13.05;4.43;;;11.70;85.20;;;;;;4996954;28;20025;-66
2022/03/18 11:18:21;;;;;;;10.60;4.88;;;11.80;85.60;;;;;;5011179;28;20032;-66
2022/03/18 11:20:50;;;;;;;14.82;4.82;;;11.80;85.10;;;;;;5009222;28;20026;-66
2022/03/18 11:23:18;;;;;;;13.40;4.68;;;11.90;85.00;;;;;;5010966;28;20049;-66
2022/03/18 11:25:46;;;;;;;12.63;5.53;;;12.00;84.30;;;;;;5005274;28;20062;-66
2022/03/18 11:28:16;;;;;;;12.27;5.07;;;12.00;84.20;;;;;;4995135;28;20058;-67
2022/03/18 11:30:44;;;;;;;14.25;5.45;;;12.00;83.90;;;;;;5002008;28;20042;-67
2022/03/18 11:33:09;;;;;;;12.77;5.07;;;12.00;84.00;;;;;;4993554;28;20038;-66
2022/03/18 11:35:53;;;;;;;16.85;4.85;;;12.10;83.60;;;;;;5009925;28;20630;-66
2022/03/18 11:38:28;;;;;;;14.30;6.38;;;12.20;83.00;;;;;;5010716;28;20030;-66
2022/03/18 11:41:12;;;;;;;11.43;4.90;;;12.30;83.10;;;;;;5009754;28;20037;-66
2022/03/18 11:43:48;;;;;;;11.80;5.20;;;12.40;81.60;;;;;;5009420;28;20018;-67
2022/03/18 11:46:14;;;;;;;12.15;4.13;;;12.40;80.90;;;;;;5009986;28;20030;-67
2022/03/18 11:48:51;;;;;;;12.48;4.55;;;12.40;80.60;;;;;;5010163;28;20125;-67
2022/03/18 11:51:33;;;;;;;11.48;4.32;;;12.40;81.00;;;;;;5001878;28;20046;-67
2022/03/18 11:54:00;;;;;;;15.32;5.28;;;12.50;81.10;;;;;;4996571;28;20025;-66
2022/03/18 11:56:45;;;;;;;12.13;5.00;;;12.50;79.20;;;;;;5001022;28;20034;-66
2022/03/18 11:59:29;;;;;;;13.02;5.50;;;12.50;78.70;;;;;;4999221;28;20091;-67
2022/03/18 12:01:55;;;;;;;12.57;5.05;;;12.40;78.90;;;;;;5011459;28;20064;-67
2022/03/18 12:04:53;;;;;;;13.20;4.90;;;12.40;79.30;;;;;;5014488;28;20049;-67
2022/03/18 12:07:30;;;;;;;13.75;4.95;;;12.50;79.70;;;;;;5000639;28;20046;-67
2022/03/18 12:10:09;;;;;;;14.93;5.28;;;12.50;79.60;;;;;;4995043;28;20034;-67
2022/03/18 12:12:39;;;;;;;13.35;4.72;;;12.60;79.90;;;;;;5012160;28;20045;-67
2022/03/18 12:15:17;;;;;;;12.23;4.72;;;12.70;79.70;;;;;;5003345;28;20651;-67
2022/03/18 12:17:53;;;;;;;13.10;5.13;;;12.80;79.70;;;;;;5008449;28;20041;-67
2022/03/18 12:20:21;;;;;;;12.68;5.22;;;12.90;78.40;;;;;;5013301;28;20037;-67
2022/03/18 12:22:48;;;;;;;14.00;4.65;;;12.90;78.80;;;;;;5012495;28;20112;-67
2022/03/18 12:25:14;;;;;;;13.18;4.53;;;13.00;78.60;;;;;;5014622;28;20030;-68
2022/03/18 12:27:41;;;;;;;11.40;4.55;;;13.00;77.70;;;;;;5010397;28;20030;-67
2022/03/18 12:30:17;;;;;;;9.88;4.00;;;13.10;77.10;;;;;;4995520;28;20512;-67
2022/03/18 12:32:59;;;;;;;9.23;4.22;;;13.10;76.60;;;;;;5002000;28;20073;-67
2022/03/18 12:35:29;;;;;;;10.10;4.30;;;13.20;75.80;;;;;;5013916;28;20061;-66
2022/03/18 12:38:13;;;;;;;9.27;3.90;;;13.20;74.90;;;;;;5015377;28;20034;-68
2022/03/18 12:40:43;;;;;;;10.15;3.80;;;13.30;75.60;;;;;;5011089;28;20022;-66
2022/03/18 12:43:10;;;;;;;11.43;4.75;;;13.40;75.70;;;;;;4996249;28;20049;-66
2022/03/18 12:45:44;;;;;;;11.80;4.45;;;13.40;75.20;;;;;;4999107;28;20022;-66
2022/03/18 12:48:13;;;;;;;14.60;4.53;;;13.30;74.70;;;;;;5015171;28;20041;-66
2022/03/18 12:50:44;;;;;;;8.18;3.55;;;13.40;74.20;;;;;;5013190;28;20026;-67
2022/03/18 12:53:21;;;;;;;11.98;4.40;;;13.40;73.90;;;;;;5015313;28;20036;-66
2022/03/18 12:55:50;;;;;;;11.88;4.32;;;13.40;73.30;;;;;;5009931;28;20069;-66
2022/03/18 12:58:17;;;;;;;8.48;3.67;;;13.50;73.20;;;;;;4996019;28;20089;-67
2022/03/18 13:00:46;;;;;;;6.82;3.28;;;13.50;73.00;;;;;;4998140;28;20370;-66
2022/03/18 13:03:20;;;;;;;10.20;3.55;;;13.50;72.20;;;;;;5012445;28;20071;-66